sensor_id;sensor_type;location;lat;lon;timestamp;pressure;altitude;pressure_sealevel;temperature;humidity
46174;BME280;31897;52.420;13.498;2023-06-14T00:01:38;101400;;;14.79973;26.40191
46174;BME280;31897;52.420;13.498;2023-06-14T00:04:39;101400;;;14.76226;26.43298
46174;BME280;31897;52.420;13.498;2023-06-14T00:07:41;101400;;;14.7293;26.46389
46174;BME280;31897;52.420;13.498;2023-06-14T00:10:42;101400;;;14.68925;26.51291
46174;BME280;31897;52.420;13.498;2023-06-14T00:13:43;101400;;;14.6466;26.59772
46174;BME280;31897;52.420;13.498;2023-06-14T00:16:43;101400;;;14.61139;26.70013
46174;BME280;31897;52.420;13.498;2023-06-14T00:19:44;101400;;;14.57456;26.7609
46174;BME280;31897;52.420;13.498;2023-06-14T00:22:45;101400;;;14.51415;26.91172
46174;BME280;31897;52.420;13.498;2023-06-14T00:25:46;101400;;;14.48637;26.97811
46174;BME280;31897;52.420;13.498;2023-06-14T00:28:47;101400;;;14.45115;27.01498
46174;BME280;31897;52.420;13.498;2023-06-14T00:31:47;101400;;;14.36748;27.09508
46174;BME280;31897;52.420;13.498;2023-06-14T00:34:48;101400;;;14.31159;27.19209
46174;BME280;31897;52.420;13.498;2023-06-14T00:37:49;101400;;;14.23891;27.28961
46174;BME280;31897;52.420;13.498;2023-06-14T00:40:50;101400;;;14.18657;27.41618
46174;BME280;31897;52.420;13.498;2023-06-14T00:43:51;101400;;;14.0819;27.58598
46174;BME280;31897;52.420;13.498;2023-06-14T00:46:52;101400;;;14.06187;27.759
46174;BME280;31897;52.420;13.498;2023-06-14T00:49:53;101400;;;14.01051;27.9092
46174;BME280;31897;52.420;13.498;2023-06-14T00:52:54;101400;;;14.00405;28.01637
46174;BME280;31897;52.420;13.498;2023-06-14T00:55:55;101400;;;14.01665;28.10513
46174;BME280;31897;52.420;13.498;2023-06-14T00:58:56;101400;;;14.01988;28.14069
46174;BME280;31897;52.420;13.498;2023-06-14T01:01:57;101400;;;14.03118;28.24732
46174;BME280;31897;52.420;13.498;2023-06-14T01:04:58;101400;;;13.97788;28.36183
46174;BME280;31897;52.420;13.498;2023-06-14T01:08:09;101400;;;13.97594;28.42131
46174;BME280;31897;52.420;13.498;2023-06-14T01:11:16;101400;;;13.89421;28.5069
46174;BME280;31897;52.420;13.498;2023-06-14T01:14:19;101400;;;13.81538;28.66959
46174;BME280;31897;52.420;13.498;2023-06-14T01:17:21;101400;;;13.81022;28.82416
46174;BME280;31897;52.420;13.498;2023-06-14T01:20:22;101400;;;13.82669;28.88308
46174;BME280;31897;52.420;13.498;2023-06-14T01:23:29;101400;;;13.84737;28.92406
46174;BME280;31897;52.420;13.498;2023-06-14T01:26:29;101400;;;13.84607;28.94786
46174;BME280;31897;52.420;13.498;2023-06-14T01:29:30;101400;;;13.82378;29.01976
46174;BME280;31897;52.420;13.498;2023-06-14T01:32:31;101400;;;13.79955;29.1214
46174;BME280;31897;52.420;13.498;2023-06-14T01:35:32;101400;;;13.77113;29.15189
46174;BME280;31897;52.420;13.498;2023-06-14T01:38:33;101400;;;13.72008;29.26612
46174;BME280;31897;52.420;13.498;2023-06-14T01:41:33;101400;;;13.69941;29.32012
46174;BME280;31897;52.420;13.498;2023-06-14T01:44:35;101400;;;13.66646;29.41008
46174;BME280;31897;52.420;13.498;2023-06-14T01:47:36;101400;;;13.6545;29.45789
46174;BME280;31897;52.420;13.498;2023-06-14T01:50:36;101400;;;13.63415;29.50593
46174;BME280;31897;52.420;13.498;2023-06-14T01:53:37;101400;;;13.6587;29.53494
46174;BME280;31897;52.420;13.498;2023-06-14T01:56:38;101400;;;13.61929;29.58943
46174;BME280;31897;52.420;13.498;2023-06-14T01:59:39;101400;;;13.54564;29.72196
46174;BME280;31897;52.420;13.498;2023-06-14T02:02:40;101400;;;13.52593;29.76995
46174;BME280;31897;52.420;13.498;2023-06-14T02:05:40;101400;;;13.46972;29.86637
46174;BME280;31897;52.420;13.498;2023-06-14T02:08:41;101400;;;13.4358;29.91471
46174;BME280;31897;52.420;13.498;2023-06-14T02:11:42;101400;;;13.40155;29.92747
46174;BME280;31897;52.420;13.498;2023-06-14T02:14:43;101400;;;13.34664;29.98821
46174;BME280;31897;52.420;13.498;2023-06-14T02:17:43;101400;;;13.32435;30.0481
46174;BME280;31897;52.420;13.498;2023-06-14T02:20:44;101400;;;13.30238;30.0961
46174;BME280;31897;52.420;13.498;2023-06-14T02:23:45;101400;;;13.21742;30.21093
46174;BME280;31897;52.420;13.498;2023-06-14T02:26:46;101400;;;13.17122;30.2951
46174;BME280;31897;52.420;13.498;2023-06-14T02:29:46;101400;;;13.12761;30.37325
46174;BME280;31897;52.420;13.498;2023-06-14T02:32:47;101400;;;13.10112;30.39169
46174;BME280;31897;52.420;13.498;2023-06-14T02:35:48;101400;;;13.09821;30.45104
46174;BME280;31897;52.420;13.498;2023-06-14T02:38:48;101400;;;13.09046;30.49864
46174;BME280;31897;52.420;13.498;2023-06-14T02:41:49;101500;;;13.07269;30.51686
46174;BME280;31897;52.420;13.498;2023-06-14T02:44:50;101400;;;13.06429;30.58818
46174;BME280;31897;52.420;13.498;2023-06-14T02:47:51;101500;;;13.02811;30.65425
46174;BME280;31897;52.420;13.498;2023-06-14T02:50:52;101500;;;12.98902;30.69667
46174;BME280;31897;52.420;13.498;2023-06-14T02:53:52;101500;;;12.95833;30.78628
46174;BME280;31897;52.420;13.498;2023-06-14T02:56:53;101500;;;12.94121;30.84001
46174;BME280;31897;52.420;13.498;2023-06-14T02:59:54;101400;;;12.9131;30.92954
46174;BME280;31897;52.420;13.498;2023-06-14T03:02:54;101400;;;12.92829;31.00026
46174;BME280;31897;52.420;13.498;2023-06-14T03:05:55;101400;;;12.92926;31.07132
46174;BME280;31897;52.420;13.498;2023-06-14T03:08:56;101400;;;12.93507;31.07711
46174;BME280;31897;52.420;13.498;2023-06-14T03:11:57;101400;;;12.95962;31.12393
46174;BME280;31897;52.420;13.498;2023-06-14T03:14:58;101400;;;12.94089;31.13621
46174;BME280;31897;52.420;13.498;2023-06-14T03:17:59;101400;;;12.91149;31.26128
46174;BME280;31897;52.420;13.498;2023-06-14T03:21:00;101400;;;12.89921;31.26156
46174;BME280;31897;52.420;13.498;2023-06-14T03:24:00;101400;;;12.87111;31.33919
46174;BME280;31897;52.420;13.498;2023-06-14T03:27:01;101400;;;12.83202;31.40522
46174;BME280;31897;52.420;13.498;2023-06-14T03:30:02;101500;;;12.8065;31.47093
46174;BME280;31897;52.420;13.498;2023-06-14T03:33:03;101500;;;12.79357;31.51859
46174;BME280;31897;52.420;13.498;2023-06-14T03:36:04;101500;;;12.79261;31.51861
46174;BME280;31897;52.420;13.498;2023-06-14T03:39:05;101500;;;12.78808;31.57792
46174;BME280;31897;52.420;13.498;2023-06-14T03:42:07;101500;;;12.77322;31.65521
46174;BME280;31897;52.420;13.498;2023-06-14T03:45:08;101500;;;12.79357;31.66661
46174;BME280;31897;52.420;13.498;2023-06-14T03:48:09;101500;;;12.75998;31.72655
46174;BME280;31897;52.420;13.498;2023-06-14T03:51:10;101500;;;12.75352;31.79773
46174;BME280;31897;52.420;13.498;2023-06-14T03:54:10;101500;;;12.75965;31.95152
46174;BME280;31897;52.420;13.498;2023-06-14T03:57:11;101500;;;12.79745;31.98623
46174;BME280;31897;52.420;13.498;2023-06-14T04:00:12;101500;;;12.83912;32.05047
46174;BME280;31897;52.420;13.498;2023-06-14T04:03:14;101500;;;12.92764;31.98939
46174;BME280;31897;52.420;13.498;2023-06-14T04:06:14;101500;;;12.97804;31.95278
46174;BME280;31897;52.420;13.498;2023-06-14T04:09:15;101500;;;13.03166;31.93386
46174;BME280;31897;52.420;13.498;2023-06-14T04:12:16;101500;;;13.10467;31.8612
46174;BME280;31897;52.420;13.498;2023-06-14T04:15:17;101500;;;13.15668;31.8897
46174;BME280;31897;52.420;13.498;2023-06-14T04:18:18;101500;;;13.22646;31.91783
46174;BME280;31897;52.420;13.498;2023-06-14T04:21:18;101500;;;13.30852;31.89235
46174;BME280;31897;52.420;13.498;2023-06-14T04:24:19;101500;;;13.38088;31.82557
46174;BME280;31897;52.420;13.498;2023-06-14T04:27:20;101500;;;13.46326;31.82378
46174;BME280;31897;52.420;13.498;2023-06-14T04:30:21;101500;;;13.51882;31.73361
46174;BME280;31897;52.420;13.498;2023-06-14T04:33:21;101500;;;13.58117;31.73816
46174;BME280;31897;52.420;13.498;2023-06-14T04:36:22;101500;;;13.65612;31.72464
46174;BME280;31897;52.420;13.498;2023-06-14T04:39:23;101500;;;13.72622;31.74682
46174;BME280;31897;52.420;13.498;2023-06-14T04:42:24;101500;;;13.81312;31.70336
46174;BME280;31897;52.420;13.498;2023-06-14T04:45:24;101500;;;13.91424;31.64176
46174;BME280;31897;52.420;13.498;2023-06-14T04:48:25;101500;;;13.97691;31.49787
46174;BME280;31897;52.420;13.498;2023-06-14T04:51:26;101500;;;13.98466;31.40271
46174;BME280;31897;52.420;13.498;2023-06-14T04:54:27;101500;;;14.00954;31.34276
46174;BME280;31897;52.420;13.498;2023-06-14T04:57:27;101500;;;14.07932;31.30552
46174;BME280;31897;52.420;13.498;2023-06-14T05:00:28;101500;;;14.11195;31.28694
46174;BME280;31897;52.420;13.498;2023-06-14T05:03:29;101500;;;14.14425;31.22086
46174;BME280;31897;52.420;13.498;2023-06-14T05:06:30;101500;;;14.14264;31.29811
46174;BME280;31897;52.420;13.498;2023-06-14T05:09:31;101500;;;14.1911;31.23758
46174;BME280;31897;52.420;13.498;2023-06-14T05:12:31;101500;;;14.23406;31.16528
46174;BME280;31897;52.420;13.498;2023-06-14T05:15:32;101500;;;14.26023;31.09931
46174;BME280;31897;52.420;13.498;2023-06-14T05:18:33;101500;;;14.33389;31.06785
46174;BME280;31897;52.420;13.498;2023-06-14T05:21:34;101500;;;14.41626;30.97079
46174;BME280;31897;52.420;13.498;2023-06-14T05:24:34;101500;;;14.44695;30.98789
46174;BME280;31897;52.420;13.498;2023-06-14T05:27:35;101500;;;14.52255;30.885
46174;BME280;31897;52.420;13.498;2023-06-14T05:30:37;101500;;;14.61397;30.84115
46174;BME280;31897;52.420;13.498;2023-06-14T05:33:37;101500;;;14.68957;30.77983
46174;BME280;31897;52.420;13.498;2023-06-14T05:36:38;101500;;;14.77712;30.70629
46174;BME280;31897;52.420;13.498;2023-06-14T05:39:39;101500;;;14.79133;30.56911
46174;BME280;31897;52.420;13.498;2023-06-14T05:42:40;101500;;;14.7923;30.56908
46174;BME280;31897;52.420;13.498;2023-06-14T05:45:40;101500;;;14.79295;30.61666
46174;BME280;31897;52.420;13.498;2023-06-14T05:48:41;101500;;;14.88631;30.56077
46174;BME280;31897;52.420;13.498;2023-06-14T05:51:42;101500;;;14.96191;30.47554
46174;BME280;31897;52.420;13.498;2023-06-14T05:54:43;101500;;;15.0039;30.48638
46174;BME280;31897;52.420;13.498;2023-06-14T05:57:44;101500;;;15.03362;30.37253
46174;BME280;31897;52.420;13.498;2023-06-14T06:00:45;101500;;;15.02102;30.31928
46174;BME280;31897;52.420;13.498;2023-06-14T06:03:45;101500;;;15.01036;30.3017
46174;BME280;31897;52.420;13.498;2023-06-14T06:06:46;101500;;;14.9913;30.23671
46174;BME280;31897;52.420;13.498;2023-06-14T06:09:47;101500;;;15.01004;30.19456
46174;BME280;31897;52.420;13.498;2023-06-14T06:12:48;101500;;;15.06496;30.15741
46174;BME280;31897;52.420;13.498;2023-06-14T06:15:49;101500;;;15.02458;30.16441
46174;BME280;31897;52.420;13.498;2023-06-14T06:18:49;101500;;;14.98937;30.21891
46174;BME280;31897;52.420;13.498;2023-06-14T06:21:50;101500;;;15.03265;30.21778
46174;BME280;31897;52.420;13.498;2023-06-14T06:24:51;101500;;;15.06076;30.18133
46174;BME280;31897;52.420;13.498;2023-06-14T06:27:52;101500;;;15.04752;30.25311
46174;BME280;31897;52.420;13.498;2023-06-14T06:30:52;101500;;;15.07142;30.16914
46174;BME280;31897;52.420;13.498;2023-06-14T06:33:53;101500;;;15.05301;30.24106
46174;BME280;31897;52.420;13.498;2023-06-14T06:36:54;101500;;;15.08047;30.18677
46174;BME280;31897;52.420;13.498;2023-06-14T06:39:55;101500;;;15.09404;30.15665
46174;BME280;31897;52.420;13.498;2023-06-14T06:42:55;101500;;;15.11891;30.13218
46174;BME280;31897;52.420;13.498;2023-06-14T06:45:56;101500;;;15.20549;30.16564
46174;BME280;31897;52.420;13.498;2023-06-14T06:48:57;101500;;;15.31242;30.0854
46174;BME280;31897;52.420;13.498;2023-06-14T06:51:59;101500;;;15.48106;29.94388
46174;BME280;31897;52.420;13.498;2023-06-14T06:55:00;101500;;;15.64937;29.77244
46174;BME280;31897;52.420;13.498;2023-06-14T06:58:01;101500;;;15.77666;29.66163
46174;BME280;31897;52.420;13.498;2023-06-14T07:01:02;101500;;;15.82899;29.46335
46174;BME280;31897;52.420;13.498;2023-06-14T07:04:03;101500;;;15.9482;29.40035
46174;BME280;31897;52.420;13.498;2023-06-14T07:07:04;101500;;;16.05578;29.31974
46174;BME280;31897;52.420;13.498;2023-06-14T07:10:05;101500;;;16.17693;29.20884
46174;BME280;31897;52.420;13.498;2023-06-14T07:13:06;101500;;;16.33975;29.10265
46174;BME280;31897;52.420;13.498;2023-06-14T07:16:07;101500;;;16.50968;29.06187
46174;BME280;31897;52.420;13.498;2023-06-14T07:19:08;101500;;;16.70966;28.85879
46174;BME280;31897;52.420;13.498;2023-06-14T07:22:09;101600;;;16.79656;28.71871
46174;BME280;31897;52.420;13.498;2023-06-14T07:25:10;101600;;;16.89445;28.60812
46174;BME280;31897;52.420;13.498;2023-06-14T07:28:11;101600;;;16.9946;28.49144
46174;BME280;31897;52.420;13.498;2023-06-14T07:31:12;101600;;;17.03369;28.40051
46174;BME280;31897;52.420;13.498;2023-06-14T07:34:12;101600;;;17.08667;28.37494
46174;BME280;31897;52.420;13.498;2023-06-14T07:37:13;101600;;;17.13707;28.18189
46174;BME280;31897;52.420;13.498;2023-06-14T07:40:14;101600;;;17.11866;28.18247
46174;BME280;31897;52.420;13.498;2023-06-14T07:43:15;101600;;;17.18036;28.06682
46174;BME280;31897;52.420;13.498;2023-06-14T07:46:15;101600;;;17.22462;27.98759
46174;BME280;31897;52.420;13.498;2023-06-14T07:49:16;101600;;;17.24336;27.93913
46174;BME280;31897;52.420;13.498;2023-06-14T07:52:17;101600;;;17.25951;27.88473
46174;BME280;31897;52.420;13.498;2023-06-14T07:55:18;101600;;;17.27987;27.87809
46174;BME280;31897;52.420;13.498;2023-06-14T07:58:19;101600;;;17.34803;27.84598
46174;BME280;31897;52.420;13.498;2023-06-14T08:01:19;101500;;;17.43978;27.76517
46174;BME280;31897;52.420;13.498;2023-06-14T08:04:20;101500;;;17.52249;27.61274
46174;BME280;31897;52.420;13.498;2023-06-14T08:07:21;101500;;;17.56966;27.52133
46174;BME280;31897;52.420;13.498;2023-06-14T08:10:22;101500;;;17.55996;27.47372
46174;BME280;31897;52.420;13.498;2023-06-14T08:13:23;101500;;;17.58226;27.42505
46174;BME280;31897;52.420;13.498;2023-06-14T08:16:24;101500;;;17.63201;27.32752
46174;BME280;31897;52.420;13.498;2023-06-14T08:19:24;101500;;;17.64041;27.29129
46174;BME280;31897;52.420;13.498;2023-06-14T08:22:25;101500;;;17.71697;27.15087
46174;BME280;31897;52.420;13.498;2023-06-14T08:25:26;101500;;;17.80129;27.02812
46174;BME280;31897;52.420;13.498;2023-06-14T08:28:27;101500;;;17.85428;26.94837
46174;BME280;31897;52.420;13.498;2023-06-14T08:31:27;101500;;;17.86494;26.96599
46174;BME280;31897;52.420;13.498;2023-06-14T08:34:28;101500;;;17.96283;27.01062
46174;BME280;31897;52.420;13.498;2023-06-14T08:37:29;101500;;;18.03229;26.93626
46174;BME280;31897;52.420;13.498;2023-06-14T08:40:30;101500;;;18.05587;26.84547
46174;BME280;31897;52.420;13.498;2023-06-14T08:43:31;101500;;;18.16798;26.76359
46174;BME280;31897;52.420;13.498;2023-06-14T08:46:32;101500;;;18.33177;26.55379
46174;BME280;31897;52.420;13.498;2023-06-14T08:49:33;101600;;;18.42062;26.31647
46174;BME280;31897;52.420;13.498;2023-06-14T08:52:37;101600;;;18.40705;26.26892
46174;BME280;31897;52.420;13.498;2023-06-14T08:55:38;101600;;;18.50364;26.18737
46174;BME280;31897;52.420;13.498;2023-06-14T08:58:40;101500;;;18.59152;25.97393
46174;BME280;31897;52.420;13.498;2023-06-14T09:01:42;101500;;;18.66195;25.94731
46174;BME280;31897;52.420;13.498;2023-06-14T09:04:43;101500;;;18.77793;25.84088
46174;BME280;31897;52.420;13.498;2023-06-14T09:07:44;101500;;;18.81961;25.68906
46174;BME280;31897;52.420;13.498;2023-06-14T09:10:44;101500;;;18.89165;25.46992
46174;BME280;31897;52.420;13.498;2023-06-14T09:13:46;101500;;;18.97565;25.34045
46174;BME280;31897;52.420;13.498;2023-06-14T09:16:46;101500;;;19.06482;25.1987
46174;BME280;31897;52.420;13.498;2023-06-14T09:19:47;101500;;;19.15495;25.03278
46174;BME280;31897;52.420;13.498;2023-06-14T09:22:48;101500;;;19.21698;24.91001
46174;BME280;31897;52.420;13.498;2023-06-14T09:25:50;101500;;;19.28289;24.84121
46174;BME280;31897;52.420;13.498;2023-06-14T09:28:50;101600;;;19.40017;24.71618
46174;BME280;31897;52.420;13.498;2023-06-14T09:31:51;101600;;;19.55879;24.51714
46174;BME280;31897;52.420;13.498;2023-06-14T09:34:52;101500;;;19.6877;24.40351
46174;BME280;31897;52.420;13.498;2023-06-14T09:37:53;101500;;;19.81725;24.25964
46174;BME280;31897;52.420;13.498;2023-06-14T09:40:56;101500;;;19.82727;24.27731
46174;BME280;31897;52.420;13.498;2023-06-14T09:43:57;101500;;;19.86281;24.28189
46174;BME280;31897;52.420;13.498;2023-06-14T09:46:58;101500;;;19.90965;24.20161
46174;BME280;31897;52.420;13.498;2023-06-14T09:49:59;101500;;;19.91159;24.11713
46174;BME280;31897;52.420;13.498;2023-06-14T09:53:02;101500;;;19.89511;24.16604
46174;BME280;31897;52.420;13.498;2023-06-14T09:56:04;101500;;;19.94584;24.12175
46174;BME280;31897;52.420;13.498;2023-06-14T09:59:05;101500;;;20.00464;24.1133
46174;BME280;31897;52.420;13.498;2023-06-14T10:02:07;101500;;;20.01304;24.10692
46174;BME280;31897;52.420;13.498;2023-06-14T10:05:11;101500;;;19.97588;24.15066
46174;BME280;31897;52.420;13.498;2023-06-14T10:08:13;101500;;;20.00722;23.96245
46174;BME280;31897;52.420;13.498;2023-06-14T10:11:15;101500;;;20.01336;23.75717
46174;BME280;31897;52.420;13.498;2023-06-14T10:14:15;101500;;;20.00302;23.62494
46174;BME280;31897;52.420;13.498;2023-06-14T10:17:20;101500;;;20.07022;23.59193
46174;BME280;31897;52.420;13.498;2023-06-14T10:20:25;101500;;;20.14808;23.5283
46174;BME280;31897;52.420;13.498;2023-06-14T10:23:26;101500;;;20.25567;23.39097
46174;BME280;31897;52.420;13.498;2023-06-14T10:26:29;101500;;;20.38942;23.24639
46174;BME280;31897;52.420;13.498;2023-06-14T10:29:29;101500;;;20.44466;23.10514
46174;BME280;31897;52.420;13.498;2023-06-14T10:32:31;101500;;;20.46825;23.09808
46174;BME280;31897;52.420;13.498;2023-06-14T10:35:32;101500;;;20.46276;23.00172
46174;BME280;31897;52.420;13.498;2023-06-14T10:38:33;101500;;;20.38037;22.98722
46174;BME280;31897;52.420;13.498;2023-06-14T10:41:34;101500;;;20.35065;22.89195
46174;BME280;31897;52.420;13.498;2023-06-14T10:44:38;101500;;;20.29282;22.97296
46174;BME280;31897;52.420;13.498;2023-06-14T10:47:39;101500;;;20.31899;22.91145
46174;BME280;31897;52.420;13.498;2023-06-14T10:50:41;101500;;;20.31866;22.88732
46174;BME280;31897;52.420;13.498;2023-06-14T10:53:42;101500;;;20.3093;22.92395
46174;BME280;31897;52.420;13.498;2023-06-14T10:56:46;101500;;;20.33126;22.93505
46174;BME280;31897;52.420;13.498;2023-06-14T10:59:47;101500;;;20.46276;22.85078
46174;BME280;31897;52.420;13.498;2023-06-14T11:02:51;101500;;;20.50637;22.73411
46174;BME280;31897;52.420;13.498;2023-06-14T11:05:53;101500;;;20.67631;22.64802
46174;BME280;31897;52.420;13.498;2023-06-14T11:09:04;101500;;;20.75837;22.57788
46174;BME280;31897;52.420;13.498;2023-06-14T11:12:10;101500;;;20.88082;22.53007
46174;BME280;31897;52.420;13.498;2023-06-14T11:15:10;101500;;;20.95383;22.59327
46174;BME280;31897;52.420;13.498;2023-06-14T11:18:11;101500;;;21.01522;22.53006
46174;BME280;31897;52.420;13.498;2023-06-14T11:21:15;101500;;;21.08823;22.52071
46174;BME280;31897;52.420;13.498;2023-06-14T11:24:16;101500;;;21.11731;22.40451
46174;BME280;31897;52.420;13.498;2023-06-14T11:27:17;101500;;;21.12345;22.38608
46174;BME280;31897;52.420;13.498;2023-06-14T11:30:18;101500;;;21.23814;22.30828
46174;BME280;31897;52.420;13.498;2023-06-14T11:33:19;101500;;;21.31536;22.1777
46174;BME280;31897;52.420;13.498;2023-06-14T11:36:20;101500;;;21.29371;21.99719
46174;BME280;31897;52.420;13.498;2023-06-14T11:39:24;101500;;;21.37965;22.02346
46174;BME280;31897;52.420;13.498;2023-06-14T11:42:25;101500;;;21.49241;21.93954
46174;BME280;31897;52.420;13.498;2023-06-14T11:45:27;101500;;;21.57964;21.7599
46174;BME280;31897;52.420;13.498;2023-06-14T11:48:40;101500;;;21.61518;21.65529
46174;BME280;31897;52.420;13.498;2023-06-14T11:51:42;101500;;;21.72438;21.46237
46174;BME280;31897;52.420;13.498;2023-06-14T11:54:43;101500;;;21.78221;21.36874
46174;BME280;31897;52.420;13.498;2023-06-14T11:57:46;101500;;;21.81032;21.22199
46174;BME280;31897;52.420;13.498;2023-06-14T12:00:48;101400;;;22.04326;20.8834
46174;BME280;31897;52.420;13.498;2023-06-14T12:03:49;101400;;;22.1838;20.63999
46174;BME280;31897;52.420;13.498;2023-06-14T12:06:50;101400;;;22.38056;20.58167
46174;BME280;31897;52.420;13.498;2023-06-14T12:10:07;101400;;;22.39833;20.47157
46174;BME280;31897;52.420;13.498;2023-06-14T12:13:08;101400;;;22.64613;20.3013
46174;BME280;31897;52.420;13.498;2023-06-14T12:16:09;101400;;;22.73272;20.2362
46174;BME280;31897;52.420;13.498;2023-06-14T12:19:12;101400;;;22.84515;20.03004
46174;BME280;31897;52.420;13.498;2023-06-14T12:22:13;101400;;;23.01186;19.85736
46174;BME280;31897;52.420;13.498;2023-06-14T12:25:22;101400;;;23.19602;19.58041
46174;BME280;31897;52.420;13.498;2023-06-14T12:28:23;101400;;;23.41927;19.35582
46174;BME280;31897;52.420;13.498;2023-06-14T12:31:31;101400;;;23.68;19.0255
46174;BME280;31897;52.420;13.498;2023-06-14T12:34:32;101400;;;23.89873;18.87977
46174;BME280;31897;52.420;13.498;2023-06-14T12:37:33;101400;;;23.86901;18.40631
46174;BME280;31897;52.420;13.498;2023-06-14T12:40:33;101400;;;23.85835;18.57744
46174;BME280;31897;52.420;13.498;2023-06-14T12:43:34;101400;;;24.12425;18.22147
46174;BME280;31897;52.420;13.498;2023-06-14T12:46:35;101400;;;24.36334;17.80582
46174;BME280;31897;52.420;13.498;2023-06-14T12:49:36;101400;;;24.58304;17.65915
46174;BME280;31897;52.420;13.498;2023-06-14T12:52:37;101400;;;24.8567;17.44818
46174;BME280;31897;52.420;13.498;2023-06-14T12:55:38;101400;;;25.047;17.28453
46174;BME280;31897;52.420;13.498;2023-06-14T12:58:38;101400;;;25.14909;17.09531
46174;BME280;31897;52.420;13.498;2023-06-14T13:01:39;101400;;;25.415;16.82294
46174;BME280;31897;52.420;13.498;2023-06-14T13:04:40;101400;;;25.38301;16.86768
46174;BME280;31897;52.420;13.498;2023-06-14T13:07:41;101400;;;25.56524;16.69792
46174;BME280;31897;52.420;13.498;2023-06-14T13:10:41;101400;;;25.83082;16.49242
46174;BME280;31897;52.420;13.498;2023-06-14T13:13:42;101400;;;26.10319;16.07802
46174;BME280;31897;52.420;13.498;2023-06-14T13:16:43;101400;;;26.35908;15.86633
46174;BME280;31897;52.420;13.498;2023-06-14T13:19:44;101400;;;26.63275;15.62876
46174;BME280;31897;52.420;13.498;2023-06-14T13:22:44;101400;;;26.85665;15.48602
46174;BME280;31897;52.420;13.498;2023-06-14T13:25:45;101400;;;26.6867;15.62541
46174;BME280;31897;52.420;13.498;2023-06-14T13:28:46;101400;;;26.65504;15.48018
46174;BME280;31897;52.420;13.498;2023-06-14T13:31:47;101400;;;26.55391;15.48035
46174;BME280;31897;52.420;13.498;2023-06-14T13:34:48;101400;;;26.76328;15.33234
46174;BME280;31897;52.420;13.498;2023-06-14T13:37:48;101400;;;27.08541;15.18321
46174;BME280;31897;52.420;13.498;2023-06-14T13:40:49;101300;;;27.15811;15.13564
46174;BME280;31897;52.420;13.498;2023-06-14T13:43:50;101400;;;27.37684;14.77776
46174;BME280;31897;52.420;13.498;2023-06-14T13:46:51;101300;;;27.37103;14.74741
46174;BME280;31897;52.420;13.498;2023-06-14T13:49:51;101300;;;26.85827;14.68816
46174;BME280;31897;52.420;13.498;2023-06-14T13:52:52;101300;;;26.75843;14.62093
46174;BME280;31897;52.420;13.498;2023-06-14T13:55:53;101300;;;27.03597;14.51099
46174;BME280;31897;52.420;13.498;2023-06-14T13:58:54;101300;;;26.78202;14.59487
46174;BME280;31897;52.420;13.498;2023-06-14T14:01:55;101300;;;26.57362;14.73092
46174;BME280;31897;52.420;13.498;2023-06-14T14:04:55;101300;;;26.39786;14.82185
46174;BME280;31897;52.420;13.498;2023-06-14T14:07:56;101300;;;26.16555;14.89178
46174;BME280;31897;52.420;13.498;2023-06-14T14:10:57;101300;;;26.06701;14.96542
46174;BME280;31897;52.420;13.498;2023-06-14T14:13:58;101300;;;26.22112;14.85761
46174;BME280;31897;52.420;13.498;2023-06-14T14:16:58;101300;;;26.65149;14.60325
46174;BME280;31897;52.420;13.498;2023-06-14T14:19:59;101300;;;26.59915;14.58821
46174;BME280;31897;52.420;13.498;2023-06-14T14:23:00;101300;;;26.57136;14.55319
46174;BME280;31897;52.420;13.498;2023-06-14T14:26:00;101300;;;26.59462;14.49649
46174;BME280;31897;52.420;13.498;2023-06-14T14:29:01;101300;;;26.56264;14.51695
46174;BME280;31897;52.420;13.498;2023-06-14T14:32:02;101300;;;26.46829;14.54142
46174;BME280;31897;52.420;13.498;2023-06-14T14:35:03;101300;;;26.22985;14.6119
46174;BME280;31897;52.420;13.498;2023-06-14T14:38:04;101300;;;25.95037;14.70942
46174;BME280;31897;52.420;13.498;2023-06-14T14:41:05;101300;;;25.91483;14.75456
46174;BME280;31897;52.420;13.498;2023-06-14T14:44:06;101300;;;25.81531;14.78539
46174;BME280;31897;52.420;13.498;2023-06-14T14:47:07;101300;;;25.74197;14.80842
46174;BME280;31897;52.420;13.498;2023-06-14T14:50:08;101300;;;25.63406;14.7663
46174;BME280;31897;52.420;13.498;2023-06-14T14:53:09;101300;;;25.43212;14.65065
46174;BME280;31897;52.420;13.498;2023-06-14T14:56:09;101300;;;25.41662;14.67607
46174;BME280;31897;52.420;13.498;2023-06-14T14:59:10;101300;;;25.48253;14.58013
46174;BME280;31897;52.420;13.498;2023-06-14T15:02:11;101300;;;26.00012;14.35706